sensor_id;sensor_type;location;lat;lon;timestamp;P1;durP1;ratioP1;P2;durP2;ratioP2
52542;SDS011;38449;52.696;6.186;2022-07-17T00:00:37;5.85;;;1.88;;
52542;SDS011;38449;52.696;6.186;2022-07-17T00:03:07;5.30;;;1.38;;
52542;SDS011;38449;52.696;6.186;2022-07-17T00:05:40;6.67;;;2.00;;
52542;SDS011;38449;52.696;6.186;2022-07-17T00:08:07;6.65;;;2.00;;
52542;SDS011;38449;52.696;6.186;2022-07-17T00:10:35;8.55;;;2.47;;
52542;SDS011;38449;52.696;6.186;2022-07-17T00:13:01;6.07;;;2.00;;
52542;SDS011;38449;52.696;6.186;2022-07-17T00:15:27;5.50;;;1.70;;
52542;SDS011;38449;52.696;6.186;2022-07-17T00:17:53;5.78;;;2.00;;
52542;SDS011;38449;52.696;6.186;2022-07-17T00:20:20;4.38;;;1.95;;
52542;SDS011;38449;52.696;6.186;2022-07-17T00:22:46;5.05;;;1.80;;
52542;SDS011;38449;52.696;6.186;2022-07-17T00:25:12;5.50;;;1.88;;
52542;SDS011;38449;52.696;6.186;2022-07-17T00:27:38;5.88;;;2.03;;
52542;SDS011;38449;52.696;6.186;2022-07-17T00:30:04;5.00;;;2.20;;
52542;SDS011;38449;52.696;6.186;2022-07-17T00:32:30;4.85;;;2.15;;
52542;SDS011;38449;52.696;6.186;2022-07-17T00:34:56;5.70;;;2.13;;
52542;SDS011;38449;52.696;6.186;2022-07-17T00:37:22;6.45;;;2.22;;
52542;SDS011;38449;52.696;6.186;2022-07-17T00:39:48;4.78;;;2.25;;
52542;SDS011;38449;52.696;6.186;2022-07-17T00:42:14;6.68;;;2.35;;
52542;SDS011;38449;52.696;6.186;2022-07-17T00:44:41;5.03;;;2.55;;
52542;SDS011;38449;52.696;6.186;2022-07-17T00:47:17;6.18;;;2.10;;
52542;SDS011;38449;52.696;6.186;2022-07-17T00:49:44;5.95;;;2.10;;
52542;SDS011;38449;52.696;6.186;2022-07-17T00:52:11;6.10;;;2.22;;
52542;SDS011;38449;52.696;6.186;2022-07-17T00:54:38;7.65;;;2.05;;
52542;SDS011;38449;52.696;6.186;2022-07-17T00:57:06;5.03;;;2.40;;
52542;SDS011;38449;52.696;6.186;2022-07-17T00:59:34;7.20;;;2.22;;
52542;SDS011;38449;52.696;6.186;2022-07-17T01:02:04;8.02;;;2.30;;
52542;SDS011;38449;52.696;6.186;2022-07-17T01:04:30;7.10;;;2.10;;
52542;SDS011;38449;52.696;6.186;2022-07-17T01:06:57;6.00;;;2.05;;
52542;SDS011;38449;52.696;6.186;2022-07-17T01:09:24;7.13;;;2.30;;
52542;SDS011;38449;52.696;6.186;2022-07-17T01:11:50;7.05;;;2.00;;
52542;SDS011;38449;52.696;6.186;2022-07-17T01:14:16;9.02;;;2.35;;
52542;SDS011;38449;52.696;6.186;2022-07-17T01:16:43;4.57;;;2.03;;
52542;SDS011;38449;52.696;6.186;2022-07-17T01:19:10;6.55;;;2.40;;
52542;SDS011;38449;52.696;6.186;2022-07-17T01:21:39;7.70;;;2.40;;
52542;SDS011;38449;52.696;6.186;2022-07-17T01:24:06;5.75;;;1.90;;
52542;SDS011;38449;52.696;6.186;2022-07-17T01:26:32;5.72;;;2.35;;
52542;SDS011;38449;52.696;6.186;2022-07-17T01:28:58;6.00;;;2.47;;
52542;SDS011;38449;52.696;6.186;2022-07-17T01:31:23;8.77;;;2.03;;
52542;SDS011;38449;52.696;6.186;2022-07-17T01:33:49;7.57;;;2.60;;
52542;SDS011;38449;52.696;6.186;2022-07-17T01:36:15;9.05;;;2.63;;
52542;SDS011;38449;52.696;6.186;2022-07-17T01:38:40;7.93;;;2.60;;
52542;SDS011;38449;52.696;6.186;2022-07-17T01:41:06;7.05;;;2.67;;
52542;SDS011;38449;52.696;6.186;2022-07-17T01:43:32;6.97;;;2.50;;
52542;SDS011;38449;52.696;6.186;2022-07-17T01:45:57;5.68;;;2.33;;
52542;SDS011;38449;52.696;6.186;2022-07-17T01:48:24;9.15;;;2.75;;
52542;SDS011;38449;52.696;6.186;2022-07-17T01:50:54;5.68;;;2.15;;
52542;SDS011;38449;52.696;6.186;2022-07-17T01:53:20;6.82;;;2.38;;
52542;SDS011;38449;52.696;6.186;2022-07-17T01:55:46;5.97;;;2.28;;
52542;SDS011;38449;52.696;6.186;2022-07-17T01:58:12;6.25;;;2.67;;
52542;SDS011;38449;52.696;6.186;2022-07-17T02:00:39;6.13;;;2.40;;
52542;SDS011;38449;52.696;6.186;2022-07-17T02:03:04;7.03;;;2.33;;
52542;SDS011;38449;52.696;6.186;2022-07-17T02:05:30;6.20;;;2.50;;
52542;SDS011;38449;52.696;6.186;2022-07-17T02:07:56;5.97;;;2.58;;
52542;SDS011;38449;52.696;6.186;2022-07-17T02:10:21;4.47;;;2.33;;
52542;SDS011;38449;52.696;6.186;2022-07-17T02:12:47;6.63;;;2.33;;
52542;SDS011;38449;52.696;6.186;2022-07-17T02:15:13;5.45;;;2.47;;
52542;SDS011;38449;52.696;6.186;2022-07-17T02:17:39;5.40;;;2.60;;
52542;SDS011;38449;52.696;6.186;2022-07-17T02:20:06;4.68;;;2.75;;
52542;SDS011;38449;52.696;6.186;2022-07-17T02:22:32;5.88;;;2.75;;
52542;SDS011;38449;52.696;6.186;2022-07-17T02:24:58;7.30;;;2.63;;
52542;SDS011;38449;52.696;6.186;2022-07-17T02:27:24;6.55;;;2.97;;
52542;SDS011;38449;52.696;6.186;2022-07-17T02:29:50;6.68;;;2.63;;
52542;SDS011;38449;52.696;6.186;2022-07-17T02:32:15;7.20;;;3.05;;
52542;SDS011;38449;52.696;6.186;2022-07-17T02:34:41;6.50;;;2.72;;
52542;SDS011;38449;52.696;6.186;2022-07-17T02:37:06;8.23;;;2.80;;
52542;SDS011;38449;52.696;6.186;2022-07-17T02:39:32;7.78;;;2.70;;
52542;SDS011;38449;52.696;6.186;2022-07-17T02:41:58;5.18;;;2.50;;
52542;SDS011;38449;52.696;6.186;2022-07-17T02:44:23;5.35;;;2.58;;
52542;SDS011;38449;52.696;6.186;2022-07-17T02:46:49;8.13;;;2.67;;
52542;SDS011;38449;52.696;6.186;2022-07-17T02:49:15;8.75;;;3.00;;
52542;SDS011;38449;52.696;6.186;2022-07-17T02:51:40;4.72;;;2.90;;
52542;SDS011;38449;52.696;6.186;2022-07-17T02:54:06;5.30;;;2.22;;
52542;SDS011;38449;52.696;6.186;2022-07-17T02:56:31;5.68;;;2.50;;
52542;SDS011;38449;52.696;6.186;2022-07-17T02:58:57;6.65;;;2.60;;
52542;SDS011;38449;52.696;6.186;2022-07-17T03:01:23;6.80;;;2.40;;
52542;SDS011;38449;52.696;6.186;2022-07-17T03:03:49;6.82;;;2.65;;
52542;SDS011;38449;52.696;6.186;2022-07-17T03:06:14;4.97;;;2.80;;
52542;SDS011;38449;52.696;6.186;2022-07-17T03:08:40;5.88;;;3.13;;
52542;SDS011;38449;52.696;6.186;2022-07-17T03:11:06;5.72;;;2.70;;
52542;SDS011;38449;52.696;6.186;2022-07-17T03:13:31;7.85;;;3.08;;
52542;SDS011;38449;52.696;6.186;2022-07-17T03:15:57;5.40;;;2.90;;
52542;SDS011;38449;52.696;6.186;2022-07-17T03:18:23;5.78;;;2.70;;
52542;SDS011;38449;52.696;6.186;2022-07-17T03:20:48;5.75;;;2.42;;
52542;SDS011;38449;52.696;6.186;2022-07-17T03:23:14;9.32;;;2.83;;
52542;SDS011;38449;52.696;6.186;2022-07-17T03:25:40;7.47;;;2.50;;
52542;SDS011;38449;52.696;6.186;2022-07-17T03:28:06;5.60;;;2.50;;
52542;SDS011;38449;52.696;6.186;2022-07-17T03:30:31;7.72;;;3.10;;
52542;SDS011;38449;52.696;6.186;2022-07-17T03:32:57;6.05;;;2.80;;
52542;SDS011;38449;52.696;6.186;2022-07-17T03:35:23;6.95;;;2.60;;
52542;SDS011;38449;52.696;6.186;2022-07-17T03:37:48;5.95;;;2.78;;
52542;SDS011;38449;52.696;6.186;2022-07-17T03:40:14;5.78;;;2.63;;
52542;SDS011;38449;52.696;6.186;2022-07-17T03:42:40;5.45;;;2.92;;
52542;SDS011;38449;52.696;6.186;2022-07-17T03:45:06;5.53;;;2.75;;
52542;SDS011;38449;52.696;6.186;2022-07-17T03:47:32;11.20;;;3.25;;
52542;SDS011;38449;52.696;6.186;2022-07-17T03:49:58;6.13;;;2.75;;
52542;SDS011;38449;52.696;6.186;2022-07-17T03:52:24;8.15;;;2.97;;
52542;SDS011;38449;52.696;6.186;2022-07-17T03:54:49;6.22;;;2.85;;
52542;SDS011;38449;52.696;6.186;2022-07-17T03:57:15;6.25;;;2.70;;
52542;SDS011;38449;52.696;6.186;2022-07-17T03:59:41;6.35;;;2.63;;
52542;SDS011;38449;52.696;6.186;2022-07-17T04:02:06;8.15;;;3.00;;
52542;SDS011;38449;52.696;6.186;2022-07-17T04:04:32;7.88;;;2.70;;
52542;SDS011;38449;52.696;6.186;2022-07-17T04:06:57;5.15;;;2.70;;
52542;SDS011;38449;52.696;6.186;2022-07-17T04:09:23;5.60;;;2.60;;
52542;SDS011;38449;52.696;6.186;2022-07-17T04:11:49;9.98;;;3.50;;
52542;SDS011;38449;52.696;6.186;2022-07-17T04:14:14;7.90;;;3.28;;
52542;SDS011;38449;52.696;6.186;2022-07-17T04:16:40;6.60;;;2.75;;
52542;SDS011;38449;52.696;6.186;2022-07-17T04:19:06;7.45;;;2.40;;
52542;SDS011;38449;52.696;6.186;2022-07-17T04:21:31;7.90;;;2.65;;
52542;SDS011;38449;52.696;6.186;2022-07-17T04:23:57;5.10;;;2.03;;
52542;SDS011;38449;52.696;6.186;2022-07-17T04:26:22;7.95;;;2.42;;
52542;SDS011;38449;52.696;6.186;2022-07-17T04:28:48;6.78;;;2.30;;
52542;SDS011;38449;52.696;6.186;2022-07-17T04:31:14;10.38;;;2.40;;
52542;SDS011;38449;52.696;6.186;2022-07-17T04:33:39;6.75;;;2.30;;
52542;SDS011;38449;52.696;6.186;2022-07-17T04:36:05;8.10;;;2.70;;
52542;SDS011;38449;52.696;6.186;2022-07-17T04:38:31;4.18;;;2.28;;
52542;SDS011;38449;52.696;6.186;2022-07-17T04:40:56;4.45;;;2.40;;
52542;SDS011;38449;52.696;6.186;2022-07-17T04:43:22;5.32;;;2.13;;
52542;SDS011;38449;52.696;6.186;2022-07-17T04:45:47;7.85;;;2.17;;
52542;SDS011;38449;52.696;6.186;2022-07-17T04:48:13;3.78;;;2.05;;
52542;SDS011;38449;52.696;6.186;2022-07-17T04:50:39;4.43;;;2.08;;
52542;SDS011;38449;52.696;6.186;2022-07-17T04:53:05;4.20;;;2.33;;
52542;SDS011;38449;52.696;6.186;2022-07-17T04:55:30;7.57;;;2.13;;
52542;SDS011;38449;52.696;6.186;2022-07-17T04:57:56;5.63;;;2.03;;
52542;SDS011;38449;52.696;6.186;2022-07-17T05:00:22;5.57;;;2.25;;
52542;SDS011;38449;52.696;6.186;2022-07-17T05:02:47;5.05;;;1.90;;
52542;SDS011;38449;52.696;6.186;2022-07-17T05:05:13;5.40;;;2.10;;
52542;SDS011;38449;52.696;6.186;2022-07-17T05:07:39;4.28;;;1.92;;
52542;SDS011;38449;52.696;6.186;2022-07-17T05:10:05;6.43;;;1.80;;
52542;SDS011;38449;52.696;6.186;2022-07-17T05:12:33;4.95;;;1.52;;
52542;SDS011;38449;52.696;6.186;2022-07-17T05:14:59;5.75;;;2.03;;
52542;SDS011;38449;52.696;6.186;2022-07-17T05:17:25;5.30;;;2.03;;
52542;SDS011;38449;52.696;6.186;2022-07-17T05:19:51;6.70;;;1.70;;
52542;SDS011;38449;52.696;6.186;2022-07-17T05:22:17;4.82;;;1.77;;
52542;SDS011;38449;52.696;6.186;2022-07-17T05:24:42;4.15;;;1.70;;
52542;SDS011;38449;52.696;6.186;2022-07-17T05:27:08;7.20;;;1.88;;
52542;SDS011;38449;52.696;6.186;2022-07-17T05:29:34;4.28;;;1.70;;
52542;SDS011;38449;52.696;6.186;2022-07-17T05:31:59;5.82;;;1.60;;
52542;SDS011;38449;52.696;6.186;2022-07-17T05:34:25;5.97;;;1.92;;
52542;SDS011;38449;52.696;6.186;2022-07-17T05:36:50;5.65;;;1.85;;
52542;SDS011;38449;52.696;6.186;2022-07-17T05:39:16;6.63;;;1.67;;
52542;SDS011;38449;52.696;6.186;2022-07-17T05:41:42;5.47;;;1.60;;
52542;SDS011;38449;52.696;6.186;2022-07-17T05:44:08;4.85;;;1.60;;
52542;SDS011;38449;52.696;6.186;2022-07-17T05:46:33;5.70;;;1.80;;
52542;SDS011;38449;52.696;6.186;2022-07-17T05:48:59;4.03;;;1.45;;
52542;SDS011;38449;52.696;6.186;2022-07-17T05:51:25;6.65;;;1.50;;
52542;SDS011;38449;52.696;6.186;2022-07-17T05:53:50;5.32;;;1.63;;
52542;SDS011;38449;52.696;6.186;2022-07-17T05:56:16;6.88;;;1.73;;
52542;SDS011;38449;52.696;6.186;2022-07-17T05:58:41;6.28;;;1.67;;
52542;SDS011;38449;52.696;6.186;2022-07-17T06:01:07;6.80;;;1.70;;
52542;SDS011;38449;52.696;6.186;2022-07-17T06:03:33;6.10;;;1.70;;
52542;SDS011;38449;52.696;6.186;2022-07-17T06:05:58;10.20;;;2.20;;
52542;SDS011;38449;52.696;6.186;2022-07-17T06:08:24;3.65;;;1.58;;
52542;SDS011;38449;52.696;6.186;2022-07-17T06:10:49;6.47;;;1.48;;
52542;SDS011;38449;52.696;6.186;2022-07-17T06:13:15;5.85;;;1.42;;
52542;SDS011;38449;52.696;6.186;2022-07-17T06:15:41;6.88;;;1.73;;
52542;SDS011;38449;52.696;6.186;2022-07-17T06:18:06;5.30;;;1.40;;
52542;SDS011;38449;52.696;6.186;2022-07-17T06:20:32;6.70;;;1.80;;
52542;SDS011;38449;52.696;6.186;2022-07-17T06:22:58;4.68;;;1.48;;
52542;SDS011;38449;52.696;6.186;2022-07-17T06:25:24;6.30;;;1.67;;
52542;SDS011;38449;52.696;6.186;2022-07-17T06:27:49;4.25;;;1.40;;
52542;SDS011;38449;52.696;6.186;2022-07-17T06:30:15;6.05;;;1.67;;
52542;SDS011;38449;52.696;6.186;2022-07-17T06:32:42;4.25;;;1.38;;
52542;SDS011;38449;52.696;6.186;2022-07-17T06:35:08;5.72;;;1.60;;
52542;SDS011;38449;52.696;6.186;2022-07-17T06:37:34;3.63;;;1.30;;
52542;SDS011;38449;52.696;6.186;2022-07-17T06:40:01;4.80;;;1.65;;
52542;SDS011;38449;52.696;6.186;2022-07-17T06:42:28;3.63;;;1.27;;
52542;SDS011;38449;52.696;6.186;2022-07-17T06:44:53;6.78;;;1.40;;
52542;SDS011;38449;52.696;6.186;2022-07-17T06:47:19;5.47;;;1.60;;
52542;SDS011;38449;52.696;6.186;2022-07-17T06:49:44;5.47;;;1.30;;
52542;SDS011;38449;52.696;6.186;2022-07-17T06:52:10;5.63;;;1.30;;
52542;SDS011;38449;52.696;6.186;2022-07-17T06:54:36;5.90;;;1.20;;
52542;SDS011;38449;52.696;6.186;2022-07-17T06:57:01;4.95;;;1.20;;
52542;SDS011;38449;52.696;6.186;2022-07-17T06:59:27;4.97;;;1.23;;
52542;SDS011;38449;52.696;6.186;2022-07-17T07:01:53;5.85;;;1.40;;
52542;SDS011;38449;52.696;6.186;2022-07-17T07:04:19;5.55;;;1.20;;
52542;SDS011;38449;52.696;6.186;2022-07-17T07:06:44;4.43;;;1.27;;
52542;SDS011;38449;52.696;6.186;2022-07-17T07:09:10;6.50;;;1.30;;
52542;SDS011;38449;52.696;6.186;2022-07-17T07:11:39;5.88;;;1.40;;
52542;SDS011;38449;52.696;6.186;2022-07-17T07:14:05;6.03;;;1.33;;
52542;SDS011;38449;52.696;6.186;2022-07-17T07:16:31;6.30;;;1.40;;
52542;SDS011;38449;52.696;6.186;2022-07-17T07:18:57;5.65;;;1.40;;
52542;SDS011;38449;52.696;6.186;2022-07-17T07:21:23;4.40;;;1.08;;
52542;SDS011;38449;52.696;6.186;2022-07-17T07:23:50;3.47;;;1.50;;
52542;SDS011;38449;52.696;6.186;2022-07-17T07:26:16;3.88;;;1.23;;
52542;SDS011;38449;52.696;6.186;2022-07-17T07:28:42;5.15;;;1.20;;
52542;SDS011;38449;52.696;6.186;2022-07-17T07:31:07;6.28;;;1.90;;
52542;SDS011;38449;52.696;6.186;2022-07-17T07:33:33;4.22;;;1.42;;
52542;SDS011;38449;52.696;6.186;2022-07-17T07:35:59;9.13;;;1.60;;
52542;SDS011;38449;52.696;6.186;2022-07-17T07:38:24;4.35;;;1.40;;
52542;SDS011;38449;52.696;6.186;2022-07-17T07:40:50;5.15;;;1.30;;
52542;SDS011;38449;52.696;6.186;2022-07-17T07:43:16;5.38;;;1.40;;
52542;SDS011;38449;52.696;6.186;2022-07-17T07:45:42;5.65;;;1.38;;
52542;SDS011;38449;52.696;6.186;2022-07-17T07:48:07;5.10;;;1.58;;
52542;SDS011;38449;52.696;6.186;2022-07-17T07:50:33;4.70;;;1.40;;
52542;SDS011;38449;52.696;6.186;2022-07-17T07:52:59;6.40;;;1.75;;
52542;SDS011;38449;52.696;6.186;2022-07-17T07:55:24;5.03;;;1.40;;
52542;SDS011;38449;52.696;6.186;2022-07-17T07:58:01;4.80;;;1.52;;
52542;SDS011;38449;52.696;6.186;2022-07-17T08:00:31;7.28;;;1.40;;
52542;SDS011;38449;52.696;6.186;2022-07-17T08:02:57;9.48;;;1.67;;
52542;SDS011;38449;52.696;6.186;2022-07-17T08:05:22;3.47;;;1.05;;
52542;SDS011;38449;52.696;6.186;2022-07-17T08:07:48;4.55;;;1.38;;
52542;SDS011;38449;52.696;6.186;2022-07-17T08:10:14;5.10;;;1.40;;
52542;SDS011;38449;52.696;6.186;2022-07-17T08:12:39;4.50;;;1.27;;
52542;SDS011;38449;52.696;6.186;2022-07-17T08:15:05;8.05;;;1.50;;
52542;SDS011;38449;52.696;6.186;2022-07-17T08:17:31;3.13;;;1.02;;
52542;SDS011;38449;52.696;6.186;2022-07-17T08:19:57;6.70;;;1.80;;
52542;SDS011;38449;52.696;6.186;2022-07-17T08:22:23;4.13;;;1.23;;
52542;SDS011;38449;52.696;6.186;2022-07-17T08:24:48;4.75;;;1.10;;
52542;SDS011;38449;52.696;6.186;2022-07-17T08:27:14;3.20;;;1.20;;
52542;SDS011;38449;52.696;6.186;2022-07-17T08:29:40;5.00;;;1.10;;
52542;SDS011;38449;52.696;6.186;2022-07-17T08:32:05;4.97;;;1.50;;
52542;SDS011;38449;52.696;6.186;2022-07-17T08:34:31;5.05;;;1.15;;
52542;SDS011;38449;52.696;6.186;2022-07-17T08:36:57;7.25;;;1.30;;
52542;SDS011;38449;52.696;6.186;2022-07-17T08:39:22;6.60;;;1.20;;
52542;SDS011;38449;52.696;6.186;2022-07-17T08:41:48;6.15;;;1.48;;
52542;SDS011;38449;52.696;6.186;2022-07-17T08:44:14;3.75;;;1.40;;
52542;SDS011;38449;52.696;6.186;2022-07-17T08:46:40;4.57;;;1.30;;
52542;SDS011;38449;52.696;6.186;2022-07-17T08:49:06;5.88;;;1.20;;
52542;SDS011;38449;52.696;6.186;2022-07-17T08:51:33;4.85;;;1.30;;
52542;SDS011;38449;52.696;6.186;2022-07-17T08:53:59;4.13;;;1.55;;
52542;SDS011;38449;52.696;6.186;2022-07-17T08:56:25;5.45;;;1.63;;
52542;SDS011;38449;52.696;6.186;2022-07-17T08:58:52;4.30;;;1.15;;
52542;SDS011;38449;52.696;6.186;2022-07-17T09:01:18;3.28;;;1.10;;
52542;SDS011;38449;52.696;6.186;2022-07-17T09:06:21;3.75;;;1.08;;
52542;SDS011;38449;52.696;6.186;2022-07-17T09:08:47;6.25;;;1.38;;
52542;SDS011;38449;52.696;6.186;2022-07-17T09:11:13;3.42;;;1.10;;
52542;SDS011;38449;52.696;6.186;2022-07-17T09:13:42;3.97;;;1.35;;
52542;SDS011;38449;52.696;6.186;2022-07-17T09:16:11;6.18;;;1.23;;
52542;SDS011;38449;52.696;6.186;2022-07-17T09:18:47;3.58;;;1.10;;
52542;SDS011;38449;52.696;6.186;2022-07-17T09:21:19;3.13;;;1.23;;
52542;SDS011;38449;52.696;6.186;2022-07-17T09:26:29;3.63;;;1.42;;
52542;SDS011;38449;52.696;6.186;2022-07-17T09:28:57;6.57;;;1.40;;
52542;SDS011;38449;52.696;6.186;2022-07-17T09:31:26;4.95;;;1.08;;
52542;SDS011;38449;52.696;6.186;2022-07-17T09:33:54;3.83;;;1.15;;
52542;SDS011;38449;52.696;6.186;2022-07-17T09:36:21;4.68;;;1.20;;
52542;SDS011;38449;52.696;6.186;2022-07-17T09:38:47;4.03;;;1.17;;
52542;SDS011;38449;52.696;6.186;2022-07-17T09:41:17;3.33;;;1.40;;
52542;SDS011;38449;52.696;6.186;2022-07-17T09:43:46;4.30;;;1.13;;
52542;SDS011;38449;52.696;6.186;2022-07-17T09:46:20;3.65;;;1.20;;
52542;SDS011;38449;52.696;6.186;2022-07-17T09:48:51;5.10;;;1.20;;
52542;SDS011;38449;52.696;6.186;2022-07-17T09:51:23;3.97;;;1.38;;
52542;SDS011;38449;52.696;6.186;2022-07-17T09:54:00;4.05;;;1.50;;
52542;SDS011;38449;52.696;6.186;2022-07-17T09:56:28;2.92;;;1.00;;
52542;SDS011;38449;52.696;6.186;2022-07-17T09:58:56;4.38;;;1.13;;
52542;SDS011;38449;52.696;6.186;2022-07-17T10:01:27;4.68;;;1.40;;
52542;SDS011;38449;52.696;6.186;2022-07-17T10:03:54;4.88;;;1.30;;
52542;SDS011;38449;52.696;6.186;2022-07-17T10:06:20;3.72;;;1.30;;
52542;SDS011;38449;52.696;6.186;2022-07-17T10:08:47;4.55;;;1.50;;
52542;SDS011;38449;52.696;6.186;2022-07-17T10:11:13;4.20;;;1.38;;
52542;SDS011;38449;52.696;6.186;2022-07-17T10:13:41;6.75;;;1.17;;
52542;SDS011;38449;52.696;6.186;2022-07-17T10:16:08;3.60;;;1.08;;
52542;SDS011;38449;52.696;6.186;2022-07-17T10:18:38;4.68;;;1.38;;
52542;SDS011;38449;52.696;6.186;2022-07-17T10:21:15;5.45;;;1.85;;
52542;SDS011;38449;52.696;6.186;2022-07-17T10:23:47;6.55;;;1.60;;
52542;SDS011;38449;52.696;6.186;2022-07-17T10:29:06;5.05;;;1.42;;
52542;SDS011;38449;52.696;6.186;2022-07-17T10:31:33;4.30;;;1.40;;
52542;SDS011;38449;52.696;6.186;2022-07-17T10:34:00;6.60;;;1.95;;
52542;SDS011;38449;52.696;6.186;2022-07-17T10:39:17;5.33;;;1.43;;
52542;SDS011;38449;52.696;6.186;2022-07-17T10:44:40;2.88;;;1.20;;
52542;SDS011;38449;52.696;6.186;2022-07-17T10:47:06;4.90;;;1.77;;
52542;SDS011;38449;52.696;6.186;2022-07-17T10:49:31;4.10;;;1.52;;
52542;SDS011;38449;52.696;6.186;2022-07-17T10:52:00;5.30;;;1.50;;
52542;SDS011;38449;52.696;6.186;2022-07-17T10:54:32;5.70;;;1.48;;
52542;SDS011;38449;52.696;6.186;2022-07-17T10:57:00;3.47;;;1.30;;
52542;SDS011;38449;52.696;6.186;2022-07-17T10:59:26;5.70;;;1.67;;
52542;SDS011;38449;52.696;6.186;2022-07-17T11:01:58;3.28;;;1.30;;
52542;SDS011;38449;52.696;6.186;2022-07-17T11:04:23;3.60;;;1.40;;
52542;SDS011;38449;52.696;6.186;2022-07-17T11:06:49;3.90;;;1.55;;
52542;SDS011;38449;52.696;6.186;2022-07-17T11:09:15;4.28;;;1.42;;
52542;SDS011;38449;52.696;6.186;2022-07-17T11:11:41;4.10;;;1.30;;
52542;SDS011;38449;52.696;6.186;2022-07-17T11:17:02;1.95;;;1.30;;
52542;SDS011;38449;52.696;6.186;2022-07-17T11:19:29;7.18;;;1.40;;
52542;SDS011;38449;52.696;6.186;2022-07-17T11:21:58;4.72;;;1.50;;
52542;SDS011;38449;52.696;6.186;2022-07-17T11:24:35;2.50;;;1.30;;
52542;SDS011;38449;52.696;6.186;2022-07-17T11:27:01;2.88;;;1.27;;
52542;SDS011;38449;52.696;6.186;2022-07-17T11:29:27;3.72;;;1.48;;
52542;SDS011;38449;52.696;6.186;2022-07-17T11:31:56;3.63;;;1.60;;
52542;SDS011;38449;52.696;6.186;2022-07-17T11:34:24;13.07;;;5.63;;
52542;SDS011;38449;52.696;6.186;2022-07-17T11:36:50;8.70;;;3.65;;
52542;SDS011;38449;52.696;6.186;2022-07-17T11:39:16;5.03;;;1.90;;
52542;SDS011;38449;52.696;6.186;2022-07-17T11:44:12;5.65;;;1.30;;
52542;SDS011;38449;52.696;6.186;2022-07-17T11:46:40;3.20;;;1.30;;
52542;SDS011;38449;52.696;6.186;2022-07-17T11:49:07;3.72;;;1.70;;
52542;SDS011;38449;52.696;6.186;2022-07-17T11:51:43;4.00;;;1.60;;
52542;SDS011;38449;52.696;6.186;2022-07-17T11:54:10;3.67;;;1.85;;
52542;SDS011;38449;52.696;6.186;2022-07-17T11:56:40;5.47;;;1.70;;
52542;SDS011;38449;52.696;6.186;2022-07-17T11:59:08;3.20;;;1.45;;
52542;SDS011;38449;52.696;6.186;2022-07-17T12:01:39;4.38;;;1.48;;
52542;SDS011;38449;52.696;6.186;2022-07-17T12:04:10;5.97;;;1.63;;
52542;SDS011;38449;52.696;6.186;2022-07-17T12:06:38;4.70;;;1.70;;
52542;SDS011;38449;52.696;6.186;2022-07-17T12:09:04;4.63;;;1.80;;
52542;SDS011;38449;52.696;6.186;2022-07-17T12:11:31;3.00;;;1.42;;
52542;SDS011;38449;52.696;6.186;2022-07-17T12:14:03;3.30;;;1.50;;
52542;SDS011;38449;52.696;6.186;2022-07-17T12:16:31;5.00;;;1.80;;
52542;SDS011;38449;52.696;6.186;2022-07-17T12:21:46;8.48;;;2.08;;
52542;SDS011;38449;52.696;6.186;2022-07-17T12:26:45;5.05;;;1.70;;
52542;SDS011;38449;52.696;6.186;2022-07-17T12:29:11;6.05;;;1.70;;
52542;SDS011;38449;52.696;6.186;2022-07-17T12:31:36;2.88;;;1.88;;
52542;SDS011;38449;52.696;6.186;2022-07-17T12:34:02;3.67;;;1.65;;
52542;SDS011;38449;52.696;6.186;2022-07-17T12:36:28;3.55;;;1.70;;
52542;SDS011;38449;52.696;6.186;2022-07-17T12:38:54;6.25;;;2.05;;
52542;SDS011;38449;52.696;6.186;2022-07-17T12:41:20;6.75;;;1.73;;
52542;SDS011;38449;52.696;6.186;2022-07-17T12:43:46;5.00;;;1.85;;
52542;SDS011;38449;52.696;6.186;2022-07-17T12:46:12;3.83;;;1.60;;
52542;SDS011;38449;52.696;6.186;2022-07-17T12:48:38;4.80;;;1.90;;
52542;SDS011;38449;52.696;6.186;2022-07-17T12:51:05;2.67;;;1.60;;
52542;SDS011;38449;52.696;6.186;2022-07-17T12:53:33;5.03;;;1.98;;
52542;SDS011;38449;52.696;6.186;2022-07-17T12:56:00;5.85;;;1.75;;
52542;SDS011;38449;52.696;6.186;2022-07-17T12:58:27;5.68;;;1.98;;
52542;SDS011;38449;52.696;6.186;2022-07-17T13:00:54;4.38;;;1.60;;
52542;SDS011;38449;52.696;6.186;2022-07-17T13:03:19;5.75;;;1.67;;
52542;SDS011;38449;52.696;6.186;2022-07-17T13:05:45;4.03;;;1.92;;
52542;SDS011;38449;52.696;6.186;2022-07-17T13:08:11;4.07;;;1.70;;
52542;SDS011;38449;52.696;6.186;2022-07-17T13:10:36;5.28;;;1.70;;
52542;SDS011;38449;52.696;6.186;2022-07-17T13:13:02;4.07;;;1.90;;
52542;SDS011;38449;52.696;6.186;2022-07-17T13:15:29;5.03;;;1.83;;
52542;SDS011;38449;52.696;6.186;2022-07-17T13:17:55;4.88;;;1.80;;
52542;SDS011;38449;52.696;6.186;2022-07-17T13:20:21;3.80;;;1.90;;
52542;SDS011;38449;52.696;6.186;2022-07-17T13:22:46;4.28;;;2.10;;
52542;SDS011;38449;52.696;6.186;2022-07-17T13:25:12;3.85;;;1.90;;
52542;SDS011;38449;52.696;6.186;2022-07-17T13:27:38;4.10;;;2.08;;
52542;SDS011;38449;52.696;6.186;2022-07-17T13:30:04;6.70;;;2.58;;
52542;SDS011;38449;52.696;6.186;2022-07-17T13:32:31;4.55;;;1.92;;
52542;SDS011;38449;52.696;6.186;2022-07-17T13:34:56;4.03;;;1.85;;
52542;SDS011;38449;52.696;6.186;2022-07-17T13:37:22;4.35;;;2.28;;
52542;SDS011;38449;52.696;6.186;2022-07-17T13:39:51;3.78;;;2.30;;
52542;SDS011;38449;52.696;6.186;2022-07-17T13:42:16;7.40;;;2.42;;
52542;SDS011;38449;52.696;6.186;2022-07-17T13:44:42;3.83;;;2.20;;
52542;SDS011;38449;52.696;6.186;2022-07-17T13:47:08;4.05;;;2.33;;
52542;SDS011;38449;52.696;6.186;2022-07-17T13:49:34;5.72;;;2.55;;
52542;SDS011;38449;52.696;6.186;2022-07-17T13:52:01;6.47;;;2.15;;
52542;SDS011;38449;52.696;6.186;2022-07-17T13:54:27;5.53;;;2.20;;
52542;SDS011;38449;52.696;6.186;2022-07-17T13:56:52;4.72;;;2.30;;
52542;SDS011;38449;52.696;6.186;2022-07-17T13:59:18;5.50;;;2.30;;
52542;SDS011;38449;52.696;6.186;2022-07-17T14:01:44;5.88;;;2.67;;
52542;SDS011;38449;52.696;6.186;2022-07-17T14:04:10;2.67;;;2.00;;
52542;SDS011;38449;52.696;6.186;2022-07-17T14:06:36;4.90;;;2.83;;
52542;SDS011;38449;52.696;6.186;2022-07-17T14:09:02;5.70;;;2.50;;
52542;SDS011;38449;52.696;6.186;2022-07-17T14:11:28;4.25;;;2.30;;
52542;SDS011;38449;52.696;6.186;2022-07-17T14:13:54;8.32;;;2.60;;
52542;SDS011;38449;52.696;6.186;2022-07-17T14:16:20;4.88;;;2.65;;
52542;SDS011;38449;52.696;6.186;2022-07-17T14:18:45;4.85;;;2.70;;
52542;SDS011;38449;52.696;6.186;2022-07-17T14:23:53;4.18;;;2.35;;
52542;SDS011;38449;52.696;6.186;2022-07-17T14:26:18;5.72;;;3.08;;
52542;SDS011;38449;52.696;6.186;2022-07-17T14:28:44;3.58;;;2.20;;
52542;SDS011;38449;52.696;6.186;2022-07-17T14:31:10;5.70;;;2.95;;
52542;SDS011;38449;52.696;6.186;2022-07-17T14:33:36;6.35;;;2.38;;
52542;SDS011;38449;52.696;6.186;2022-07-17T14:36:02;7.40;;;2.90;;
52542;SDS011;38449;52.696;6.186;2022-07-17T14:38:28;4.20;;;2.17;;
52542;SDS011;38449;52.696;6.186;2022-07-17T14:40:53;5.05;;;2.33;;
52542;SDS011;38449;52.696;6.186;2022-07-17T14:43:19;6.75;;;2.58;;
52542;SDS011;38449;52.696;6.186;2022-07-17T14:45:44;5.03;;;2.58;;
52542;SDS011;38449;52.696;6.186;2022-07-17T14:48:10;6.43;;;2.60;;
52542;SDS011;38449;52.696;6.186;2022-07-17T14:50:36;4.90;;;2.30;;
52542;SDS011;38449;52.696;6.186;2022-07-17T14:53:02;5.63;;;2.80;;
52542;SDS011;38449;52.696;6.186;2022-07-17T14:55:27;5.15;;;2.70;;
52542;SDS011;38449;52.696;6.186;2022-07-17T14:57:53;5.22;;;2.70;;
52542;SDS011;38449;52.696;6.186;2022-07-17T15:00:19;4.18;;;2.67;;
52542;SDS011;38449;52.696;6.186;2022-07-17T15:02:45;5.75;;;2.60;;
52542;SDS011;38449;52.696;6.186;2022-07-17T15:05:10;5.55;;;2.72;;
52542;SDS011;38449;52.696;6.186;2022-07-17T15:07:36;4.40;;;2.70;;
52542;SDS011;38449;52.696;6.186;2022-07-17T15:10:02;4.97;;;2.47;;